Time;durP1;ratioP1;P1;durP2;ratioP2;P2;SDS_P1;SDS_P2;PMS_P1;PMS_P2;Temp;Humidity;BMP_temperature;BMP_pressure;BME280_temperature;BME280_humidity;BME280_pressure;Samples;Min_cycle;Max_cycle;Signal;HPM_P1;HPM_P2
2022/11/25 00:01:33;;;;;;;12.20;4.05;;;;;;;5.65;100.00;101006.28;4900172;29;20036;-81
2022/11/25 00:04:01;;;;;;;13.65;4.40;;;;;;;5.67;100.00;101012.44;4882657;29;20044;-82
2022/11/25 00:06:35;;;;;;;20.83;5.72;;;;;;;5.69;100.00;101005.53;4910613;29;20049;-80
2022/11/25 00:09:06;;;;;;;17.13;4.40;;;;;;;5.72;100.00;101007.34;4908798;29;20059;-82
2022/11/25 00:11:36;;;;;;;16.52;4.85;;;;;;;5.74;100.00;100996.06;4901153;29;20047;-82
2022/11/25 00:14:10;;;;;;;25.38;4.68;;;;;;;5.76;100.00;100994.38;4917706;29;20052;-81
2022/11/25 00:16:39;;;;;;;18.05;4.80;;;;;;;5.77;100.00;100998.75;4905527;29;21467;-84
2022/11/25 00:19:15;;;;;;;12.80;4.13;;;;;;;5.79;100.00;100994.44;4910853;29;20045;-83
2022/11/25 00:21:44;;;;;;;19.48;4.65;;;;;;;5.80;100.00;100988.41;4902140;29;20056;-83
2022/11/25 00:24:14;;;;;;;15.18;4.63;;;;;;;5.81;100.00;100987.53;4914001;29;20059;-83
2022/11/25 00:26:43;;;;;;;11.82;4.18;;;;;;;5.83;100.00;100984.97;4902659;29;20040;-83
2022/11/25 00:29:13;;;;;;;18.45;5.32;;;;;;;5.83;100.00;100985.84;4907845;29;20052;-83
2022/11/25 00:31:41;;;;;;;17.50;5.30;;;;;;;5.84;100.00;100977.16;4907959;29;20036;-82
2022/11/25 00:34:12;;;;;;;19.35;4.70;;;;;;;5.85;100.00;100978.91;4888140;29;20055;-83
2022/11/25 00:36:41;;;;;;;21.80;5.25;;;;;;;5.84;100.00;100966.69;4881389;29;20070;-83
2022/11/25 00:39:16;;;;;;;13.40;4.53;;;;;;;5.86;100.00;100971.97;4906434;29;20498;-83
2022/11/25 00:44:35;;;;;;;17.77;4.78;;;;;;;5.87;100.00;100963.25;4908830;29;20041;-82
2022/11/25 00:47:14;;;;;;;19.15;4.78;;;;;;;5.88;100.00;100964.13;4909898;29;20126;-82
2022/11/25 00:49:51;;;;;;;20.52;4.72;;;;;;;5.88;100.00;100969.38;4914423;29;20066;-82
2022/11/25 00:52:23;;;;;;;18.38;5.28;;;;;;;5.89;100.00;100977.25;4905924;29;20055;-83
2022/11/25 00:54:52;;;;;;;14.77;4.47;;;;;;;5.90;100.00;100979.03;4929900;29;20054;-83
2022/11/25 00:57:22;;;;;;;15.07;4.43;;;;;;;5.90;100.00;100979.03;4896602;29;20055;-82
2022/11/25 00:59:50;;;;;;;18.98;4.97;;;;;;;5.92;100.00;100979.09;4922516;29;20048;-83
2022/11/25 01:02:21;;;;;;;23.85;4.88;;;;;;;5.91;100.00;100972.94;4895609;29;20033;-82
2022/11/25 01:04:50;;;;;;;20.58;5.57;;;;;;;5.92;100.00;100976.47;4927650;29;20052;-83
2022/11/25 01:07:18;;;;;;;17.33;4.90;;;;;;;5.94;100.00;100980.00;4894007;29;20040;-82
2022/11/25 01:09:48;;;;;;;18.63;4.60;;;;;;;5.94;100.00;100983.50;4884944;29;20391;-83
2022/11/25 01:12:16;;;;;;;14.50;4.10;;;;;;;5.95;100.00;100980.03;4886284;29;20111;-82
2022/11/25 01:14:44;;;;;;;13.45;4.28;;;;;;;5.96;100.00;100978.34;4913213;29;20056;-82
2022/11/25 01:17:14;;;;;;;13.90;3.47;;;;;;;5.97;100.00;100975.75;4918214;29;20051;-82
2022/11/25 01:19:43;;;;;;;21.23;5.00;;;;;;;5.97;100.00;100975.75;4902486;29;20044;-83
2022/11/25 01:22:11;;;;;;;12.68;4.47;;;;;;;5.97;100.00;100977.47;4892369;29;20040;-81
2022/11/25 01:24:43;;;;;;;17.13;5.00;;;;;;;5.97;100.00;100974.84;4916307;29;20055;-83
2022/11/25 01:27:11;;;;;;;22.38;5.55;;;;;;;5.97;100.00;100975.75;4916959;29;20044;-83
2022/11/25 01:29:41;;;;;;;20.42;4.70;;;;;;;5.98;100.00;100980.13;4883322;29;20052;-83
2022/11/25 01:32:10;;;;;;;17.73;4.43;;;;;;;5.99;100.00;100975.78;4924110;29;20040;-83
2022/11/25 01:34:39;;;;;;;13.90;4.30;;;;;;;6.01;100.00;100982.84;4901003;29;20079;-83
2022/11/25 01:37:07;;;;;;;16.38;4.30;;;;;;;6.02;100.00;100976.72;4926839;29;20058;-82
2022/11/25 01:39:37;;;;;;;13.15;4.03;;;;;;;6.02;100.00;100973.25;4870816;29;20051;-82
2022/11/25 01:42:06;;;;;;;15.27;4.28;;;;;;;6.01;100.00;100980.22;4880228;29;20051;-82
2022/11/25 01:44:40;;;;;;;25.55;5.80;;;;;;;6.02;100.00;100973.25;4881025;29;20044;-82
2022/11/25 01:47:23;;;;;;;15.38;4.05;;;;;;;6.02;100.00;100976.72;4911595;29;20060;-82
2022/11/25 01:50:04;;;;;;;18.23;5.05;;;;;;;6.03;100.00;100972.38;4901082;29;20052;-82
2022/11/25 01:52:40;;;;;;;16.98;5.18;;;;;;;6.04;100.00;100980.28;4897329;29;20052;-82
2022/11/25 01:55:11;;;;;;;22.35;5.72;;;;;;;6.05;100.00;100978.56;4910711;29;20060;-82
2022/11/25 01:57:45;;;;;;;17.73;5.10;;;;;;;6.07;100.00;100975.94;4917198;29;20060;-83
2022/11/25 02:00:14;;;;;;;12.30;4.00;;;;;;;6.07;100.00;100973.34;4908685;29;20044;-83
2022/11/25 02:02:48;;;;;;;16.92;5.25;;;;;;;6.05;100.00;100970.72;4894399;29;20051;-83
2022/11/25 02:05:20;;;;;;;16.30;4.45;;;;;;;6.06;100.00;100967.22;4914410;29;20048;-83
2022/11/25 02:07:52;;;;;;;25.75;5.22;;;;;;;6.06;100.00;100975.06;4931224;29;20115;-82
2022/11/25 02:10:25;;;;;;;18.73;4.32;;;;;;;6.04;100.00;100964.56;4872881;29;20041;-81
2022/11/25 02:12:54;;;;;;;19.65;4.88;;;;;;;6.04;100.00;100966.31;4911199;29;20036;-83
2022/11/25 02:15:22;;;;;;;19.83;5.13;;;;;;;6.05;100.00;100965.47;4902191;29;20037;-81
2022/11/25 02:17:51;;;;;;;18.02;4.75;;;;;;;6.04;100.00;100961.06;4890319;29;20052;-83
2022/11/25 02:20:23;;;;;;;17.30;5.03;;;;;;;6.04;100.00;100958.47;4916259;29;20133;-81
2022/11/25 02:23:24;;;;;;;20.42;4.88;;;;;;;6.03;100.00;100954.97;4880607;29;20055;-83
2022/11/25 02:25:55;;;;;;;12.23;4.80;;;;;;;6.03;100.00;100957.59;4900590;29;20051;-83
2022/11/25 02:28:26;;;;;;;17.20;4.68;;;;;;;6.05;100.00;100955.00;4896962;29;20056;-82
2022/11/25 02:30:55;;;;;;;18.13;5.07;;;;;;;6.04;100.00;100968.94;4887696;29;20044;-82
2022/11/25 02:33:25;;;;;;;14.13;4.00;;;;;;;6.04;100.00;100961.94;4900882;29;20036;-82
2022/11/25 02:35:59;;;;;;;14.25;4.63;;;;;;;6.04;100.00;100967.19;4879874;29;20040;-83
2022/11/25 02:38:32;;;;;;;16.67;5.20;;;;;;;6.05;100.00;100968.09;4933604;29;20058;-82
2022/11/25 02:41:24;;;;;;;17.52;4.40;;;;;;;6.04;100.00;100969.81;4890821;29;20063;-82
2022/11/25 02:43:59;;;;;;;15.05;4.72;;;;;;;6.05;100.00;100960.25;4895846;29;20040;-83
2022/11/25 02:46:28;;;;;;;12.88;3.88;;;;;;;6.06;100.00;100964.63;4888761;29;20430;-82
2022/11/25 02:48:58;;;;;;;15.48;4.25;;;;;;;6.06;100.00;100964.63;4911156;29;20052;-83
2022/11/25 02:51:44;;;;;;;22.52;4.97;;;;;;;6.07;100.00;100960.25;4899491;29;20075;-82
2022/11/25 02:54:13;;;;;;;12.73;4.67;;;;;;;6.08;100.00;100962.03;4917502;29;20413;-83
2022/11/25 02:56:42;;;;;;;12.90;4.50;;;;;;;6.09;100.00;100969.03;4890649;29;20278;-82
2022/11/25 02:59:11;;;;;;;17.58;5.30;;;;;;;6.09;100.00;100975.16;4910441;29;20044;-82
2022/11/25 03:01:40;;;;;;;14.50;4.43;;;;;;;6.10;100.00;100966.44;4907275;29;20413;-82
2022/11/25 03:04:10;;;;;;;9.65;3.25;;;;;;;6.10;100.00;100961.22;4900759;29;20044;-82
2022/11/25 03:06:38;;;;;;;17.20;4.68;;;;;;;6.12;100.00;100956.03;4896690;29;20058;-81
2022/11/25 03:09:07;;;;;;;17.45;4.78;;;;;;;6.12;100.00;100959.50;4907122;29;20048;-83
2022/11/25 03:14:27;;;;;;;17.02;4.55;;;;;;;6.12;100.00;100956.03;4914867;29;20063;-81
2022/11/25 03:16:55;;;;;;;13.43;4.97;;;;;;;6.12;100.00;100953.41;4884238;29;20032;-82
2022/11/25 03:19:25;;;;;;;;;;;;;;;6.11;100.00;100956.88;4897270;29;20067;-81
2022/11/25 03:21:54;;;;;;;16.80;4.28;;;;;;;6.10;100.00;100952.50;4912412;29;19934;-82
2022/11/25 03:24:23;;;;;;;16.50;4.50;;;;;;;6.10;100.00;100957.72;4904092;29;20036;-81
2022/11/25 03:26:51;;;;;;;12.27;4.75;;;;;;;6.08;100.00;100956.81;4896628;29;20080;-81
2022/11/25 03:29:19;;;;;;;21.27;5.25;;;;;;;6.08;100.00;100951.56;4870290;29;20032;-81
2022/11/25 03:31:48;;;;;;;19.60;5.60;;;;;;;6.07;100.00;100953.31;4916474;29;20155;-82
2022/11/25 03:34:17;;;;;;;18.70;4.60;;;;;;;6.08;100.00;100956.81;4892670;29;20049;-82
2022/11/25 03:36:45;;;;;;;15.50;4.78;;;;;;;6.06;100.00;100956.75;4896995;29;20068;-83
2022/11/25 03:39:14;;;;;;;15.27;4.35;;;;;;;6.07;100.00;100963.78;4918785;29;20620;-81
2022/11/25 03:41:42;;;;;;;20.63;5.07;;;;;;;6.07;100.00;100963.78;4895176;29;20127;-82
2022/11/25 03:44:13;;;;;;;18.08;4.70;;;;;;;6.07;100.00;100961.16;4874597;29;20044;-82
2022/11/25 03:46:42;;;;;;;15.95;4.32;;;;;;;6.08;100.00;100962.03;4883165;29;20056;-82
2022/11/25 03:49:12;;;;;;;23.52;5.97;;;;;;;6.07;100.00;100968.09;4887522;29;20047;-82
2022/11/25 03:51:40;;;;;;;19.40;5.82;;;;;;;6.08;100.00;100962.91;4908385;29;20047;-81
2022/11/25 03:54:09;;;;;;;13.50;5.03;;;;;;;6.10;100.00;100957.72;4916513;29;20028;-82
2022/11/25 03:56:55;;;;;;;25.70;5.80;;;;;;;6.11;100.00;100951.66;4927409;29;20055;-81
2022/11/25 03:59:24;;;;;;;25.02;5.82;;;;;;;6.10;100.00;100955.09;4872892;29;20044;-82
2022/11/25 04:01:52;;;;;;;21.85;5.25;;;;;;;6.10;100.00;100955.09;4899651;29;20135;-82
2022/11/25 04:04:22;;;;;;;13.52;5.40;;;;;;;6.11;100.00;100947.28;4885503;29;20044;-82
2022/11/25 04:06:51;;;;;;;24.77;5.95;;;;;;;6.12;100.00;100949.03;4908044;29;20048;-83
2022/11/25 04:09:19;;;;;;;17.85;4.72;;;;;;;6.12;100.00;100954.28;4900310;29;20053;-82
2022/11/25 04:14:47;;;;;;;20.95;6.07;;;;;;;6.15;100.00;100959.59;4895838;29;20041;-82
2022/11/25 04:17:15;;;;;;;25.05;6.88;;;;;;;6.15;100.00;100951.75;4899882;29;20056;-82
2022/11/25 04:19:45;;;;;;;16.95;5.88;;;;;;;6.16;100.00;100955.25;4889904;29;20047;-82
2022/11/25 04:22:13;;;;;;;18.27;5.50;;;;;;;6.16;100.00;100966.63;4897881;29;20403;-82
2022/11/25 04:24:44;;;;;;;19.83;5.63;;;;;;;6.17;100.00;100963.13;4891518;29;20044;-81
2022/11/25 04:27:20;;;;;;;23.45;5.90;;;;;;;6.19;100.00;100960.56;4888970;29;20044;-81
2022/11/25 04:29:49;;;;;;;18.55;7.25;;;;;;;6.20;100.00;100967.53;4893973;29;20502;-82
2022/11/25 04:32:19;;;;;;;13.95;5.88;;;;;;;6.20;100.00;100973.69;4903185;29;20063;-81
2022/11/25 04:34:48;;;;;;;24.55;5.80;;;;;;;6.20;100.00;100978.91;4908524;29;20048;-81
2022/11/25 04:37:18;;;;;;;14.77;5.70;;;;;;;6.21;100.00;100969.31;4910778;29;20398;-82
2022/11/25 04:39:46;;;;;;;21.20;6.70;;;;;;;6.22;100.00;100966.75;4896774;29;20516;-82
2022/11/25 04:42:30;;;;;;;29.48;7.15;;;;;;;6.24;100.00;100979.88;4916168;29;20060;-81
2022/11/25 04:45:03;;;;;;;27.67;6.40;;;;;;;6.26;100.00;100980.78;4892455;29;20043;-82
2022/11/25 04:47:53;;;;;;;19.20;6.05;;;;;;;6.29;100.00;100985.19;4906418;29;20051;-82
2022/11/25 04:50:22;;;;;;;20.83;6.45;;;;;;;6.31;100.00;100983.50;4919212;29;20730;-81
2022/11/25 04:52:58;;;;;;;21.40;7.38;;;;;;;6.31;100.00;100986.09;4893673;29;20060;-83
2022/11/25 04:55:27;;;;;;;23.80;7.22;;;;;;;6.33;100.00;100993.16;4912461;29;20040;-81
2022/11/25 04:57:56;;;;;;;29.25;6.47;;;;;;;6.33;100.00;100987.03;4917086;29;20402;-82
2022/11/25 05:00:25;;;;;;;19.65;6.20;;;;;;;6.33;100.00;100985.31;4875162;29;20040;-81
2022/11/25 05:02:54;;;;;;;20.08;6.75;;;;;;;6.34;100.00;100991.44;4893041;29;20041;-82
2022/11/25 05:05:24;;;;;;;20.17;7.50;;;;;;;6.35;100.00;100998.41;4910223;29;20031;-82
2022/11/25 05:07:52;;;;;;;20.27;7.22;;;;;;;6.35;100.00;100993.19;4896985;29;20040;-81
2022/11/25 05:10:21;;;;;;;29.27;7.35;;;;;;;6.36;100.00;100994.97;4927228;29;20070;-82
2022/11/25 05:12:50;;;;;;;24.73;7.70;;;;;;;6.37;100.00;100999.31;4911452;29;20052;-83
2022/11/25 05:15:22;;;;;;;28.38;7.63;;;;;;;6.36;100.00;100995.84;4879623;29;20048;-82
2022/11/25 05:17:50;;;;;;;23.48;9.13;;;;;;;6.37;100.00;100992.38;4898868;29;20052;-82
2022/11/25 05:20:31;;;;;;;18.70;6.90;;;;;;;6.37;100.00;100992.38;4904609;29;20044;-82
2022/11/25 05:23:03;;;;;;;28.13;6.78;;;;;;;6.39;100.00;100995.00;4887940;29;20060;-81
2022/11/25 05:25:31;;;;;;;19.10;7.60;;;;;;;6.39;100.00;100995.00;4893923;29;20036;-83
2022/11/25 05:28:18;;;;;;;24.55;7.78;;;;;;;6.39;100.00;100987.16;4893075;29;20040;-81
2022/11/25 05:30:46;;;;;;;17.80;7.10;;;;;;;6.40;100.00;100996.78;4873041;29;20051;-82
2022/11/25 05:33:16;;;;;;;23.00;7.80;;;;;;;6.40;100.00;100994.19;4923972;29;20048;-82
2022/11/25 05:35:56;;;;;;;21.73;7.60;;;;;;;6.41;100.00;100998.56;4900016;29;20044;-82
2022/11/25 05:38:29;;;;;;;19.77;7.00;;;;;;;6.41;100.00;101007.31;4879213;29;20045;-82
2022/11/25 05:41:04;;;;;;;24.48;7.40;;;;;;;6.43;100.00;101005.59;4897986;29;20047;-82
2022/11/25 05:43:33;;;;;;;27.42;7.25;;;;;;;6.42;100.00;101001.19;4907935;29;20056;-81
2022/11/25 05:46:06;;;;;;;17.85;7.28;;;;;;;6.44;100.00;101003.84;4865434;29;20036;-82
2022/11/25 05:48:36;;;;;;;22.15;7.88;;;;;;;6.44;100.00;101009.97;4880283;29;20063;-83
2022/11/25 05:51:07;;;;;;;18.60;8.07;;;;;;;6.47;100.00;101008.31;4905886;29;20406;-83
2022/11/25 05:53:36;;;;;;;19.00;7.80;;;;;;;6.47;100.00;101005.69;4892182;29;20052;-81
2022/11/25 05:56:05;;;;;;;19.90;7.70;;;;;;;6.47;100.00;101016.16;4884611;29;20514;-81
2022/11/25 05:59:09;;;;;;;28.48;8.43;;;;;;;6.45;100.00;101021.34;4874951;29;20085;-80
2022/11/25 06:01:52;;;;;;;32.63;9.15;;;;;;;6.45;100.00;101021.34;4882420;29;20048;-81
2022/11/25 06:04:20;;;;;;;22.90;8.15;;;;;;;6.45;100.00;101029.22;4902835;29;20450;-81
2022/11/25 06:06:49;;;;;;;22.05;8.35;;;;;;;6.45;100.00;101037.06;4877263;29;20064;-81
2022/11/25 06:09:18;;;;;;;22.52;7.47;;;;;;;6.45;100.00;101042.28;4889605;29;20044;-81
2022/11/25 06:11:46;;;;;;;20.63;7.38;;;;;;;6.45;100.00;101047.53;4908031;29;20041;-82
2022/11/25 06:14:18;;;;;;;22.50;7.40;;;;;;;6.44;100.00;101043.13;4890077;29;20056;-82
2022/11/25 06:16:50;;;;;;;24.05;7.90;;;;;;;6.44;100.00;101040.50;4863289;29;20048;-82
2022/11/25 06:19:27;;;;;;;23.98;7.60;;;;;;;6.44;100.00;101045.75;4897980;29;20044;-82
2022/11/25 06:21:55;;;;;;;27.38;8.25;;;;;;;6.43;100.00;101042.25;4893317;29;20059;-82
2022/11/25 06:24:27;;;;;;;22.70;7.85;;;;;;;6.43;100.00;101055.34;4897275;29;20083;-83
2022/11/25 06:27:00;;;;;;;23.23;8.18;;;;;;;6.44;100.00;101043.13;4898694;29;20410;-82
2022/11/25 06:29:29;;;;;;;32.53;8.90;;;;;;;6.43;100.00;101044.88;4902937;29;20048;-82
2022/11/25 06:31:57;;;;;;;22.60;8.90;;;;;;;6.44;100.00;101053.59;4871535;29;20041;-80
2022/11/25 06:34:43;;;;;;;25.48;9.10;;;;;;;6.47;100.00;101060.66;4903428;29;20058;-82
2022/11/25 06:37:23;;;;;;;30.33;12.02;;;;;;;6.48;100.00;101058.06;4901160;29;20036;-82
2022/11/25 06:39:52;;;;;;;27.08;10.88;;;;;;;6.48;100.00;101058.06;4883348;29;20781;-81
2022/11/25 06:42:20;;;;;;;34.03;11.68;;;;;;;6.51;100.00;101058.13;4893394;29;20048;-81
2022/11/25 06:44:48;;;;;;;32.10;11.25;;;;;;;6.53;100.00;101063.41;4896305;29;20053;-82
2022/11/25 06:47:17;;;;;;;28.52;12.40;;;;;;;6.56;100.00;101072.22;4857490;29;20044;-81
2022/11/25 06:49:45;;;;;;;24.65;10.30;;;;;;;6.59;100.00;101069.66;4906308;29;20118;-82
2022/11/25 06:52:14;;;;;;;28.65;11.40;;;;;;;6.62;100.00;101080.22;4917752;29;20048;-81
2022/11/25 06:54:42;;;;;;;32.25;11.00;;;;;;;6.67;100.00;101087.28;4928884;29;20037;-83
2022/11/25 06:57:15;;;;;;;29.10;10.85;;;;;;;6.69;100.00;101086.50;4900120;29;20049;-82
2022/11/25 06:59:44;;;;;;;29.08;11.60;;;;;;;6.72;100.00;101096.13;4896042;29;20497;-82
2022/11/25 07:02:12;;;;;;;27.90;11.82;;;;;;;6.72;100.00;101094.41;4874836;29;20310;-83
2022/11/25 07:04:41;;;;;;;26.17;10.73;;;;;;;6.75;100.00;101088.38;4915627;29;20064;-82
2022/11/25 07:07:10;;;;;;;23.38;10.38;;;;;;;6.78;100.00;101096.28;4887035;29;20052;-82
2022/11/25 07:09:40;;;;;;;31.88;10.88;;;;;;;6.80;100.00;101097.19;4917227;29;20413;-82
2022/11/25 07:12:11;;;;;;;24.15;10.90;;;;;;;6.80;100.00;101102.44;4911127;29;20049;-83
2022/11/25 07:14:39;;;;;;;32.75;11.80;;;;;;;6.82;100.00;101103.34;4905062;29;20044;-83
2022/11/25 07:17:08;;;;;;;26.30;11.10;;;;;;;6.85;100.00;101099.94;4882690;29;20040;-82
2022/11/25 07:19:39;;;;;;;30.13;11.60;;;;;;;6.85;100.00;101103.44;4875735;29;20060;-80
2022/11/25 07:22:08;;;;;;;33.28;11.40;;;;;;;6.87;100.00;101109.59;4891857;29;20061;-81
2022/11/25 07:24:36;;;;;;;22.50;9.70;;;;;;;6.87;100.00;101116.56;4874946;29;20064;-80
2022/11/25 07:27:05;;;;;;;29.33;11.13;;;;;;;6.88;100.00;101123.56;4885244;29;20056;-80
2022/11/25 07:29:34;;;;;;;30.02;11.63;;;;;;;6.89;100.00;101114.84;4905213;29;20662;-81
2022/11/25 07:32:23;;;;;;;32.35;11.52;;;;;;;6.88;100.00;101120.94;4897477;29;20029;-81
2022/11/25 07:34:51;;;;;;;25.50;10.93;;;;;;;6.90;100.00;101125.38;4878954;29;20052;-80
2022/11/25 07:37:19;;;;;;;23.50;10.60;;;;;;;6.90;100.00;101125.38;4863605;29;20059;-81
2022/11/25 07:39:48;;;;;;;29.33;10.70;;;;;;;6.91;100.00;101123.63;4857502;29;20436;-81
2022/11/25 07:42:16;;;;;;;30.20;10.55;;;;;;;6.91;100.00;101129.75;4904138;29;20055;-81
2022/11/25 07:44:45;;;;;;;21.48;10.15;;;;;;;6.92;100.00;101134.16;4886429;29;20051;-81
2022/11/25 07:47:36;;;;;;;23.83;10.30;;;;;;;6.92;100.00;101142.00;4902547;29;20047;-81
2022/11/25 07:50:05;;;;;;;25.52;10.77;;;;;;;6.92;100.00;101144.63;4913817;29;20513;-81
2022/11/25 07:52:36;;;;;;;25.05;10.93;;;;;;;6.94;100.00;101142.06;4916025;29;20055;-80
2022/11/25 07:55:05;;;;;;;26.35;9.88;;;;;;;6.93;100.00;101146.38;4880838;29;20056;-80
2022/11/25 07:57:34;;;;;;;24.10;10.25;;;;;;;6.95;100.00;101147.31;4899355;29;20041;-81
2022/11/25 08:00:03;;;;;;;23.98;10.00;;;;;;;6.96;100.00;101159.56;4913383;29;20058;-82
2022/11/25 08:02:38;;;;;;;22.88;9.90;;;;;;;6.97;100.00;101155.22;4896945;29;20053;-81
2022/11/25 08:05:08;;;;;;;23.33;9.98;;;;;;;6.98;100.00;101167.47;4912925;29;20071;-81
2022/11/25 08:07:36;;;;;;;23.95;10.15;;;;;;;6.98;100.00;101160.50;4907629;29;20044;-81
2022/11/25 08:10:05;;;;;;;22.90;9.75;;;;;;;6.99;100.00;101172.75;4882248;29;22196;-81
2022/11/25 08:12:33;;;;;;;23.63;9.38;;;;;;;7.01;100.00;101175.38;4917642;29;20052;-82
2022/11/25 08:15:03;;;;;;;18.60;8.90;;;;;;;7.02;100.00;101174.56;4901590;29;20053;-82
2022/11/25 08:17:32;;;;;;;20.20;9.27;;;;;;;7.04;100.00;101183.31;4878618;29;20053;-81
2022/11/25 08:20:00;;;;;;;16.13;8.23;;;;;;;7.06;100.00;101183.38;4900844;29;20044;-82
2022/11/25 08:22:28;;;;;;;21.13;8.27;;;;;;;7.08;100.00;101181.66;4891235;29;20045;-81
2022/11/25 08:24:57;;;;;;;23.08;7.85;;;;;;;7.11;100.00;101181.75;4889113;29;20056;-81
2022/11/25 08:27:26;;;;;;;14.88;7.70;;;;;;;7.15;100.00;101175.72;4895490;29;20037;-80
2022/11/25 08:29:54;;;;;;;21.92;8.02;;;;;;;7.18;100.00;101186.25;4902309;29;20064;-82
2022/11/25 08:32:23;;;;;;;20.58;7.50;;;;;;;7.20;100.00;101192.41;4894085;29;20052;-82
2022/11/25 08:34:51;;;;;;;19.27;7.75;;;;;;;7.23;100.00;101190.75;4902630;29;20063;-82
2022/11/25 08:37:19;;;;;;;16.63;7.57;;;;;;;7.26;100.00;101192.56;4900958;29;20049;-81
2022/11/25 08:39:48;;;;;;;19.48;7.20;;;;;;;7.29;100.00;101191.75;4878396;29;20059;-81
2022/11/25 08:42:21;;;;;;;17.33;8.32;;;;;;;7.31;100.00;101206.63;4908721;29;20067;-82
2022/11/25 08:44:54;;;;;;;19.00;7.78;;;;;;;7.34;100.00;101205.84;4909790;29;20060;-80
2022/11/25 08:47:23;;;;;;;16.60;7.35;;;;;;;7.36;100.00;101205.00;4904299;29;20414;-81
2022/11/25 08:49:53;;;;;;;18.10;8.05;;;;;;;7.41;100.00;101208.63;4900565;29;20048;-82
2022/11/25 08:52:22;;;;;;;19.42;7.65;;;;;;;7.45;100.00;101213.91;4915905;29;20056;-82
2022/11/25 08:54:50;;;;;;;19.52;7.50;;;;;;;7.48;100.00;101209.63;4913924;29;20060;-82
2022/11/25 08:57:18;;;;;;;16.17;7.43;;;;;;;7.51;100.00;101212.34;4897969;29;20051;-80
2022/11/25 08:59:47;;;;;;;18.25;7.25;;;;;;;7.54;100.00;101209.78;4920674;29;20048;-82
2022/11/25 09:02:22;;;;;;;16.17;7.05;;;;;;;7.56;100.00;101210.72;4883748;29;20056;-80
2022/11/25 09:04:50;;;;;;;13.93;6.88;;;;;;;7.59;100.00;101223.00;4894993;29;20052;-81
2022/11/25 09:07:19;;;;;;;17.35;6.90;;;;;;;7.62;100.00;101223.06;4916899;29;20812;-82
2022/11/25 09:09:48;;;;;;;17.20;7.40;;;;;;;7.65;100.00;101228.34;4898339;29;20048;-80
2022/11/25 09:12:16;;;;;;;16.65;7.50;;;;;;;7.68;100.00;101222.31;4884421;29;20048;-81
2022/11/25 09:14:45;;;;;;;16.15;6.20;;;;;;;7.70;100.00;101228.47;4887591;29;20055;-81
2022/11/25 09:17:15;;;;;;;14.57;5.97;;;;;;;7.74;100.00;101223.31;4889593;29;20036;-81
2022/11/25 09:19:43;;;;;;;14.13;5.68;;;;;;;7.79;100.00;101226.91;4886063;29;21103;-81
2022/11/25 09:22:12;;;;;;;12.65;5.38;;;;;;;7.83;100.00;101227.00;4915513;29;20059;-81
2022/11/25 09:24:42;;;;;;;14.98;5.22;;;;;;;7.86;100.00;101237.53;4901755;29;20036;-82
2022/11/25 09:27:12;;;;;;;12.23;4.90;;;;;;;7.89;100.00;101234.97;4918259;29;20045;-82
2022/11/25 09:29:40;;;;;;;11.23;4.90;;;;;;;7.91;100.00;101239.41;4884868;29;20037;-82
2022/11/25 09:32:09;;;;;;;11.93;5.22;;;;;;;7.94;100.00;101244.72;4897498;29;20040;-81
2022/11/25 09:34:37;;;;;;;10.05;4.43;;;;;;;7.98;100.00;101248.28;4897149;29;20060;-82
2022/11/25 09:37:06;;;;;;;15.77;5.22;;;;;;;8.01;100.00;101245.72;4913827;29;20056;-82
2022/11/25 09:39:34;;;;;;;15.45;4.45;;;;;;;8.05;100.00;101251.91;4917525;29;20489;-81
2022/11/25 09:48:11;;;;;;;12.27;4.93;;;;;;;8.18;100.00;101261.78;4910818;29;20048;-82
2022/11/25 09:50:52;;;;;;;13.85;5.78;;;;;;;8.25;100.00;101271.56;4909421;29;23759;-82
2022/11/25 09:53:23;;;;;;;9.00;4.45;;;;;;;8.32;100.00;101273.47;4916247;29;20044;-81
2022/11/25 09:56:01;;;;;;;15.18;4.55;;;;;;;8.38;100.00;101270.06;4919608;29;20067;-82
2022/11/25 09:58:38;;;;;;;10.18;4.28;;;;;;;8.44;100.00;101277.22;4898711;29;20052;-81
2022/11/25 10:01:14;;;;;;;9.27;3.80;;;;;;;8.45;100.00;101272.00;4892825;29;20040;-82
2022/11/25 10:03:53;;;;;;;11.65;4.28;;;;;;;8.46;100.00;101281.63;4908714;29;20056;-82
2022/11/25 10:06:28;;;;;;;14.07;4.40;;;;;;;8.49;100.00;101291.31;4910097;29;20063;-82
2022/11/25 10:09:11;;;;;;;11.00;5.00;;;;;;;8.50;100.00;101287.81;4915728;29;20052;-82
2022/11/25 10:11:51;;;;;;;12.35;4.57;;;;;;;8.51;100.00;101285.22;4917608;29;20058;-82
2022/11/25 10:14:44;;;;;;;9.15;3.90;;;;;;;8.53;100.00;101294.03;4920720;29;20055;-82
2022/11/25 10:17:32;;;;;;;8.88;4.55;;;;;;;8.54;100.00;101298.44;4904100;29;20040;-82
2022/11/25 10:20:16;;;;;;;12.02;4.30;;;;;;;8.62;100.00;101292.41;4904338;29;20044;-83
2022/11/25 10:22:48;;;;;;;9.75;4.07;;;;;;;8.65;100.00;101295.97;4901865;29;20056;-82
2022/11/25 10:25:33;;;;;;;11.55;4.70;;;;;;;8.67;100.00;101303.91;4908896;29;20067;-81
2022/11/25 10:28:30;;;;;;;13.05;4.07;;;;;;;8.68;100.00;101308.31;4912627;29;20044;-82
2022/11/25 10:31:17;;;;;;;7.88;4.10;;;;;;;8.70;100.00;101310.09;4890508;29;20040;-81
2022/11/25 10:33:53;;;;;;;11.30;3.70;;;;;;;8.74;100.00;101313.66;4909011;29;20063;-82
2022/11/25 10:36:38;;;;;;;9.38;4.00;;;;;;;8.78;100.00;101315.50;4901170;29;20043;-81
2022/11/25 10:39:11;;;;;;;8.18;3.40;;;;;;;8.80;100.00;101310.28;4915221;29;20063;-82
2022/11/25 10:42:02;;;;;;;9.82;4.05;;;;;;;8.84;100.00;101317.34;4921334;29;20059;-82
2022/11/25 10:44:39;;;;;;;8.00;4.00;;;;;;;8.86;100.00;101319.13;4883452;29;20052;-81
2022/11/25 10:47:17;;;;;;;9.65;3.70;;;;;;;8.89;100.00;101320.94;4915859;29;20044;-81
2022/11/25 10:50:24;;;;;;;11.43;3.95;;;;;;;8.90;100.00;101328.88;4908891;29;20067;-82
2022/11/25 10:53:01;;;;;;;9.20;3.80;;;;;;;8.95;100.00;101315.78;4903891;29;20060;-82
2022/11/25 10:55:31;;;;;;;5.97;3.10;;;;;;;8.95;100.00;101323.69;4919178;29;20052;-80
2022/11/25 10:58:25;;;;;;;12.35;3.55;;;;;;;9.00;100.00;101335.16;4919814;29;20048;-82
2022/11/25 11:01:16;;;;;;;12.88;3.58;;;;;;;9.02;100.00;101348.31;4893414;29;20422;-83
2022/11/25 11:03:51;;;;;;;7.47;3.53;;;;;;;9.02;100.00;101346.59;4917236;29;20051;-81
2022/11/25 11:06:37;;;;;;;11.55;3.67;;;;;;;9.06;100.00;101339.66;4908845;29;20060;-81
2022/11/25 11:09:33;;;;;;;10.88;3.15;;;;;;;9.06;100.00;101343.16;4904083;29;20062;-80
2022/11/25 11:12:22;;;;;;;10.60;3.72;;;;;;;9.03;100.00;101358.84;4922847;29;20044;-83
2022/11/25 11:14:52;;;;;;;8.73;3.22;;;;;;;9.07;100.00;101358.03;4901610;29;20053;-80
2022/11/25 11:17:33;;;;;;;11.65;3.42;;;;;;;9.11;100.00;101366.88;4883557;29;20051;-79
2022/11/25 11:20:07;;;;;;;12.05;3.40;;;;;;;9.13;100.00;101359.91;4917645;29;20051;-80
2022/11/25 11:22:45;;;;;;;15.15;3.75;;;;;;;9.18;100.00;101372.25;4899135;29;20060;-80
2022/11/25 11:25:19;;;;;;;9.63;3.38;;;;;;;9.24;100.00;101371.47;4910567;29;20521;-80
2022/11/25 11:27:48;;;;;;;9.20;3.22;;;;;;;9.28;100.00;101378.59;4917568;29;20059;-82
2022/11/25 11:30:20;;;;;;;9.90;3.47;;;;;;;9.33;100.00;101387.44;4886057;29;20868;-80
2022/11/25 11:33:05;;;;;;;17.67;4.18;;;;;;;9.30;100.00;101376.88;4886426;29;20051;-78
2022/11/25 11:35:55;;;;;;;10.52;3.30;;;;;;;9.24;100.00;101376.75;4923388;29;20079;-81
2022/11/25 11:38:41;;;;;;;10.32;3.22;;;;;;;9.21;100.00;101378.47;4901263;29;20052;-79
2022/11/25 11:41:16;;;;;;;12.20;3.95;;;;;;;9.20;100.00;101380.19;4912647;29;20032;-80
2022/11/25 11:44:06;;;;;;;13.07;3.67;;;;;;;9.22;100.00;101385.47;4914293;29;20056;-79
2022/11/25 11:46:53;;;;;;;11.02;3.30;;;;;;;9.23;100.00;101390.78;4919757;29;20040;-80
2022/11/25 11:49:35;;;;;;;7.47;3.35;;;;;;;9.29;100.00;101390.00;4889529;29;20054;-81
2022/11/25 11:52:03;;;;;;;;;;;;;;;9.32;100.00;101401.44;4903945;29;20047;-79
2022/11/25 11:54:51;;;;;;;13.02;4.03;;;;;;;9.36;100.00;101392.75;4880185;29;19931;-80
2022/11/25 11:57:43;;;;;;;11.48;3.25;;;;;;;9.41;100.00;101392.81;4900000;29;20064;-79